sensor_id;sensor_type;location;lat;lon;timestamp;P1;durP1;ratioP1;P2;durP2;ratioP2
39654;SDS011;25336;59.944;11.010;2023-12-28T00:01:25;20.05;;;10.68;;
39654;SDS011;25336;59.944;11.010;2023-12-28T00:03:50;18.08;;;10.98;;
39654;SDS011;25336;59.944;11.010;2023-12-28T00:06:16;20.70;;;11.25;;
39654;SDS011;25336;59.944;11.010;2023-12-28T00:08:42;20.48;;;10.10;;
39654;SDS011;25336;59.944;11.010;2023-12-28T00:11:08;19.08;;;9.82;;
39654;SDS011;25336;59.944;11.010;2023-12-28T00:13:33;17.70;;;10.40;;
39654;SDS011;25336;59.944;11.010;2023-12-28T00:15:59;16.40;;;9.02;;
39654;SDS011;25336;59.944;11.010;2023-12-28T00:18:25;12.13;;;8.43;;
39654;SDS011;25336;59.944;11.010;2023-12-28T00:20:51;17.75;;;8.77;;
39654;SDS011;25336;59.944;11.010;2023-12-28T00:23:17;15.77;;;8.35;;
39654;SDS011;25336;59.944;11.010;2023-12-28T00:25:45;13.18;;;7.90;;
39654;SDS011;25336;59.944;11.010;2023-12-28T00:28:11;12.68;;;8.50;;
39654;SDS011;25336;59.944;11.010;2023-12-28T00:30:37;12.68;;;7.07;;
39654;SDS011;25336;59.944;11.010;2023-12-28T00:33:02;14.20;;;8.07;;
39654;SDS011;25336;59.944;11.010;2023-12-28T00:35:28;14.35;;;7.93;;
39654;SDS011;25336;59.944;11.010;2023-12-28T00:37:54;17.17;;;7.70;;
39654;SDS011;25336;59.944;11.010;2023-12-28T00:40:20;17.35;;;9.95;;
39654;SDS011;25336;59.944;11.010;2023-12-28T00:42:47;17.65;;;10.35;;
39654;SDS011;25336;59.944;11.010;2023-12-28T00:45:13;21.05;;;9.57;;
39654;SDS011;25336;59.944;11.010;2023-12-28T00:47:39;17.10;;;8.25;;
39654;SDS011;25336;59.944;11.010;2023-12-28T00:50:04;15.68;;;8.52;;
39654;SDS011;25336;59.944;11.010;2023-12-28T00:52:30;19.30;;;9.43;;
39654;SDS011;25336;59.944;11.010;2023-12-28T00:54:56;11.90;;;6.97;;
39654;SDS011;25336;59.944;11.010;2023-12-28T00:57:22;14.98;;;8.60;;
39654;SDS011;25336;59.944;11.010;2023-12-28T00:59:48;14.27;;;7.82;;
39654;SDS011;25336;59.944;11.010;2023-12-28T01:02:13;15.68;;;7.78;;
39654;SDS011;25336;59.944;11.010;2023-12-28T01:04:39;17.08;;;8.57;;
39654;SDS011;25336;59.944;11.010;2023-12-28T01:07:04;19.10;;;9.43;;
39654;SDS011;25336;59.944;11.010;2023-12-28T01:09:31;19.23;;;9.02;;
39654;SDS011;25336;59.944;11.010;2023-12-28T01:12:00;16.73;;;8.27;;
39654;SDS011;25336;59.944;11.010;2023-12-28T01:14:25;14.75;;;7.63;;
39654;SDS011;25336;59.944;11.010;2023-12-28T01:16:51;15.93;;;7.10;;
39654;SDS011;25336;59.944;11.010;2023-12-28T01:19:17;12.32;;;7.35;;
39654;SDS011;25336;59.944;11.010;2023-12-28T01:21:43;14.38;;;7.80;;
39654;SDS011;25336;59.944;11.010;2023-12-28T01:24:08;15.45;;;7.18;;
39654;SDS011;25336;59.944;11.010;2023-12-28T01:26:34;13.80;;;6.50;;
39654;SDS011;25336;59.944;11.010;2023-12-28T01:29:00;14.18;;;7.40;;
39654;SDS011;25336;59.944;11.010;2023-12-28T01:31:29;12.70;;;7.15;;
39654;SDS011;25336;59.944;11.010;2023-12-28T01:33:55;15.57;;;6.70;;
39654;SDS011;25336;59.944;11.010;2023-12-28T01:36:21;15.73;;;7.93;;
39654;SDS011;25336;59.944;11.010;2023-12-28T01:38:47;16.45;;;7.30;;
39654;SDS011;25336;59.944;11.010;2023-12-28T01:41:13;18.00;;;8.32;;
39654;SDS011;25336;59.944;11.010;2023-12-28T01:43:40;17.13;;;8.13;;
39654;SDS011;25336;59.944;11.010;2023-12-28T01:46:06;14.38;;;8.32;;
39654;SDS011;25336;59.944;11.010;2023-12-28T01:51:03;16.88;;;8.27;;
39654;SDS011;25336;59.944;11.010;2023-12-28T01:53:29;13.43;;;8.15;;
39654;SDS011;25336;59.944;11.010;2023-12-28T01:55:55;15.77;;;8.32;;
39654;SDS011;25336;59.944;11.010;2023-12-28T01:58:21;15.48;;;7.28;;
39654;SDS011;25336;59.944;11.010;2023-12-28T02:00:47;21.38;;;8.68;;
39654;SDS011;25336;59.944;11.010;2023-12-28T02:03:15;11.98;;;5.65;;
39654;SDS011;25336;59.944;11.010;2023-12-28T02:05:40;11.52;;;5.65;;
39654;SDS011;25336;59.944;11.010;2023-12-28T02:08:06;11.80;;;5.93;;
39654;SDS011;25336;59.944;11.010;2023-12-28T02:10:32;11.98;;;5.53;;
39654;SDS011;25336;59.944;11.010;2023-12-28T02:12:58;10.25;;;5.03;;
39654;SDS011;25336;59.944;11.010;2023-12-28T02:15:24;12.63;;;5.05;;
39654;SDS011;25336;59.944;11.010;2023-12-28T02:20:23;8.93;;;5.32;;
39654;SDS011;25336;59.944;11.010;2023-12-28T02:22:50;9.27;;;4.72;;
39654;SDS011;25336;59.944;11.010;2023-12-28T02:25:17;18.15;;;6.53;;
39654;SDS011;25336;59.944;11.010;2023-12-28T02:27:46;15.52;;;5.90;;
39654;SDS011;25336;59.944;11.010;2023-12-28T02:30:17;13.27;;;6.25;;
39654;SDS011;25336;59.944;11.010;2023-12-28T02:35:17;19.73;;;6.43;;
39654;SDS011;25336;59.944;11.010;2023-12-28T02:37:51;12.85;;;6.22;;
39654;SDS011;25336;59.944;11.010;2023-12-28T02:40:18;14.02;;;6.35;;
39654;SDS011;25336;59.944;11.010;2023-12-28T02:42:46;12.10;;;5.78;;
39654;SDS011;25336;59.944;11.010;2023-12-28T02:45:12;15.18;;;6.95;;
39654;SDS011;25336;59.944;11.010;2023-12-28T02:47:37;17.42;;;7.47;;
39654;SDS011;25336;59.944;11.010;2023-12-28T02:50:03;14.23;;;5.90;;
39654;SDS011;25336;59.944;11.010;2023-12-28T02:52:29;13.82;;;5.85;;
39654;SDS011;25336;59.944;11.010;2023-12-28T02:54:55;20.27;;;7.97;;
39654;SDS011;25336;59.944;11.010;2023-12-28T02:57:21;16.55;;;7.07;;
39654;SDS011;25336;59.944;11.010;2023-12-28T02:59:46;12.73;;;6.75;;
39654;SDS011;25336;59.944;11.010;2023-12-28T03:02:12;12.63;;;6.53;;
39654;SDS011;25336;59.944;11.010;2023-12-28T03:04:38;15.07;;;5.70;;
39654;SDS011;25336;59.944;11.010;2023-12-28T03:07:04;15.82;;;7.13;;
39654;SDS011;25336;59.944;11.010;2023-12-28T03:09:32;12.82;;;6.72;;
39654;SDS011;25336;59.944;11.010;2023-12-28T03:11:59;11.02;;;6.57;;
39654;SDS011;25336;59.944;11.010;2023-12-28T03:14:25;11.52;;;6.07;;
39654;SDS011;25336;59.944;11.010;2023-12-28T03:16:51;9.57;;;4.95;;
39654;SDS011;25336;59.944;11.010;2023-12-28T03:19:17;9.32;;;4.97;;
39654;SDS011;25336;59.944;11.010;2023-12-28T03:21:42;10.85;;;4.95;;
39654;SDS011;25336;59.944;11.010;2023-12-28T03:24:08;8.20;;;4.25;;
39654;SDS011;25336;59.944;11.010;2023-12-28T03:26:40;14.52;;;5.35;;
39654;SDS011;25336;59.944;11.010;2023-12-28T03:29:06;6.28;;;3.83;;
39654;SDS011;25336;59.944;11.010;2023-12-28T03:31:33;6.18;;;3.83;;
39654;SDS011;25336;59.944;11.010;2023-12-28T03:33:59;6.85;;;3.83;;
39654;SDS011;25336;59.944;11.010;2023-12-28T03:36:24;7.82;;;4.28;;
39654;SDS011;25336;59.944;11.010;2023-12-28T03:38:50;6.35;;;3.58;;
39654;SDS011;25336;59.944;11.010;2023-12-28T03:41:19;5.35;;;3.50;;
39654;SDS011;25336;59.944;11.010;2023-12-28T03:43:46;7.55;;;4.75;;
39654;SDS011;25336;59.944;11.010;2023-12-28T03:46:12;7.72;;;4.63;;
39654;SDS011;25336;59.944;11.010;2023-12-28T03:48:38;8.00;;;4.78;;
39654;SDS011;25336;59.944;11.010;2023-12-28T03:51:04;6.13;;;3.83;;
39654;SDS011;25336;59.944;11.010;2023-12-28T03:53:31;7.30;;;4.43;;
39654;SDS011;25336;59.944;11.010;2023-12-28T03:56:00;5.20;;;3.88;;
39654;SDS011;25336;59.944;11.010;2023-12-28T03:58:26;5.78;;;4.32;;
39654;SDS011;25336;59.944;11.010;2023-12-28T04:00:52;8.13;;;4.50;;
39654;SDS011;25336;59.944;11.010;2023-12-28T04:03:17;8.07;;;3.83;;
39654;SDS011;25336;59.944;11.010;2023-12-28T04:05:43;7.63;;;4.15;;
39654;SDS011;25336;59.944;11.010;2023-12-28T04:08:09;9.90;;;4.88;;
39654;SDS011;25336;59.944;11.010;2023-12-28T04:10:35;6.75;;;3.90;;
39654;SDS011;25336;59.944;11.010;2023-12-28T04:13:04;6.50;;;3.53;;
39654;SDS011;25336;59.944;11.010;2023-12-28T04:15:30;7.13;;;3.58;;
39654;SDS011;25336;59.944;11.010;2023-12-28T04:17:56;7.03;;;4.03;;
39654;SDS011;25336;59.944;11.010;2023-12-28T04:20:22;8.32;;;3.42;;
39654;SDS011;25336;59.944;11.010;2023-12-28T04:22:48;6.30;;;3.38;;
39654;SDS011;25336;59.944;11.010;2023-12-28T04:25:14;7.00;;;3.20;;
39654;SDS011;25336;59.944;11.010;2023-12-28T04:27:41;7.03;;;3.35;;
39654;SDS011;25336;59.944;11.010;2023-12-28T04:30:07;6.13;;;3.25;;
39654;SDS011;25336;59.944;11.010;2023-12-28T04:32:37;4.57;;;3.20;;
39654;SDS011;25336;59.944;11.010;2023-12-28T04:35:03;6.20;;;2.63;;
39654;SDS011;25336;59.944;11.010;2023-12-28T04:37:29;3.72;;;2.90;;
39654;SDS011;25336;59.944;11.010;2023-12-28T04:39:56;7.90;;;3.70;;
39654;SDS011;25336;59.944;11.010;2023-12-28T04:42:22;7.20;;;3.22;;
39654;SDS011;25336;59.944;11.010;2023-12-28T04:44:47;7.75;;;3.72;;
39654;SDS011;25336;59.944;11.010;2023-12-28T04:47:13;7.78;;;3.85;;
39654;SDS011;25336;59.944;11.010;2023-12-28T04:49:39;5.38;;;3.63;;
39654;SDS011;25336;59.944;11.010;2023-12-28T04:52:05;8.73;;;4.13;;
39654;SDS011;25336;59.944;11.010;2023-12-28T04:54:30;14.75;;;5.20;;
39654;SDS011;25336;59.944;11.010;2023-12-28T04:56:58;8.52;;;3.55;;
39654;SDS011;25336;59.944;11.010;2023-12-28T04:59:23;6.80;;;3.50;;
39654;SDS011;25336;59.944;11.010;2023-12-28T05:01:49;7.63;;;2.88;;
39654;SDS011;25336;59.944;11.010;2023-12-28T05:04:15;4.60;;;3.28;;
39654;SDS011;25336;59.944;11.010;2023-12-28T05:06:40;5.25;;;2.70;;
39654;SDS011;25336;59.944;11.010;2023-12-28T05:09:06;5.78;;;3.05;;
39654;SDS011;25336;59.944;11.010;2023-12-28T05:11:32;6.10;;;3.38;;
39654;SDS011;25336;59.944;11.010;2023-12-28T05:13:57;11.85;;;4.78;;
39654;SDS011;25336;59.944;11.010;2023-12-28T05:16:23;15.30;;;4.95;;
39654;SDS011;25336;59.944;11.010;2023-12-28T05:18:49;6.65;;;2.88;;
39654;SDS011;25336;59.944;11.010;2023-12-28T05:21:15;16.33;;;4.72;;
39654;SDS011;25336;59.944;11.010;2023-12-28T05:23:41;12.55;;;4.80;;
39654;SDS011;25336;59.944;11.010;2023-12-28T05:26:07;8.80;;;3.78;;
39654;SDS011;25336;59.944;11.010;2023-12-28T05:28:32;7.85;;;3.50;;
39654;SDS011;25336;59.944;11.010;2023-12-28T05:30:58;5.63;;;2.90;;
39654;SDS011;25336;59.944;11.010;2023-12-28T05:33:24;9.82;;;3.78;;
39654;SDS011;25336;59.944;11.010;2023-12-28T05:35:50;8.55;;;3.40;;
39654;SDS011;25336;59.944;11.010;2023-12-28T05:38:16;6.78;;;3.50;;
39654;SDS011;25336;59.944;11.010;2023-12-28T05:40:43;6.75;;;3.28;;
39654;SDS011;25336;59.944;11.010;2023-12-28T05:43:09;6.25;;;2.47;;
39654;SDS011;25336;59.944;11.010;2023-12-28T05:45:36;4.93;;;2.50;;
39654;SDS011;25336;59.944;11.010;2023-12-28T05:48:02;4.57;;;2.10;;
39654;SDS011;25336;59.944;11.010;2023-12-28T05:50:28;5.05;;;1.80;;
39654;SDS011;25336;59.944;11.010;2023-12-28T05:52:54;4.78;;;1.98;;
39654;SDS011;25336;59.944;11.010;2023-12-28T05:55:20;6.50;;;2.95;;
39654;SDS011;25336;59.944;11.010;2023-12-28T05:57:46;2.25;;;2.03;;
39654;SDS011;25336;59.944;11.010;2023-12-28T06:00:12;14.52;;;5.38;;
39654;SDS011;25336;59.944;11.010;2023-12-28T06:02:39;8.13;;;2.80;;
39654;SDS011;25336;59.944;11.010;2023-12-28T06:05:05;6.22;;;3.10;;
39654;SDS011;25336;59.944;11.010;2023-12-28T06:07:31;2.53;;;1.83;;
39654;SDS011;25336;59.944;11.010;2023-12-28T06:09:57;7.85;;;2.50;;
39654;SDS011;25336;59.944;11.010;2023-12-28T06:12:23;22.60;;;2.20;;
39654;SDS011;25336;59.944;11.010;2023-12-28T06:14:49;6.50;;;1.60;;
39654;SDS011;25336;59.944;11.010;2023-12-28T06:17:15;2.58;;;1.45;;
39654;SDS011;25336;59.944;11.010;2023-12-28T06:19:41;3.60;;;2.13;;
39654;SDS011;25336;59.944;11.010;2023-12-28T06:22:06;6.60;;;1.80;;
39654;SDS011;25336;59.944;11.010;2023-12-28T06:24:32;3.33;;;1.60;;
39654;SDS011;25336;59.944;11.010;2023-12-28T06:27:02;5.72;;;1.83;;
39654;SDS011;25336;59.944;11.010;2023-12-28T06:29:31;2.42;;;1.45;;
39654;SDS011;25336;59.944;11.010;2023-12-28T06:31:56;2.35;;;1.55;;
39654;SDS011;25336;59.944;11.010;2023-12-28T06:34:22;5.78;;;2.55;;
39654;SDS011;25336;59.944;11.010;2023-12-28T06:36:48;3.13;;;1.67;;
39654;SDS011;25336;59.944;11.010;2023-12-28T06:39:14;1.83;;;1.65;;
39654;SDS011;25336;59.944;11.010;2023-12-28T06:41:39;4.47;;;1.58;;
39654;SDS011;25336;59.944;11.010;2023-12-28T06:44:05;2.35;;;1.70;;
39654;SDS011;25336;59.944;11.010;2023-12-28T06:46:31;5.65;;;1.75;;
39654;SDS011;25336;59.944;11.010;2023-12-28T06:48:56;2.00;;;1.58;;
39654;SDS011;25336;59.944;11.010;2023-12-28T06:51:24;5.53;;;2.28;;
39654;SDS011;25336;59.944;11.010;2023-12-28T06:53:50;4.55;;;1.80;;
39654;SDS011;25336;59.944;11.010;2023-12-28T06:56:16;4.00;;;2.17;;
39654;SDS011;25336;59.944;11.010;2023-12-28T06:58:42;3.47;;;1.70;;
39654;SDS011;25336;59.944;11.010;2023-12-28T07:01:08;4.45;;;2.30;;
39654;SDS011;25336;59.944;11.010;2023-12-28T07:03:34;2.53;;;1.88;;
39654;SDS011;25336;59.944;11.010;2023-12-28T07:06:00;3.55;;;1.50;;
39654;SDS011;25336;59.944;11.010;2023-12-28T07:08:26;1.88;;;1.50;;
39654;SDS011;25336;59.944;11.010;2023-12-28T07:10:52;6.07;;;1.83;;
39654;SDS011;25336;59.944;11.010;2023-12-28T07:13:18;2.88;;;1.30;;
39654;SDS011;25336;59.944;11.010;2023-12-28T07:15:43;1.58;;;1.45;;
39654;SDS011;25336;59.944;11.010;2023-12-28T07:18:09;5.22;;;1.77;;
39654;SDS011;25336;59.944;11.010;2023-12-28T07:20:35;2.90;;;1.52;;
39654;SDS011;25336;59.944;11.010;2023-12-28T07:23:01;5.57;;;2.67;;
39654;SDS011;25336;59.944;11.010;2023-12-28T07:25:28;3.88;;;2.05;;
39654;SDS011;25336;59.944;11.010;2023-12-28T07:27:54;4.93;;;3.05;;
39654;SDS011;25336;59.944;11.010;2023-12-28T07:30:19;4.95;;;2.42;;
39654;SDS011;25336;59.944;11.010;2023-12-28T07:32:45;2.40;;;1.92;;
39654;SDS011;25336;59.944;11.010;2023-12-28T07:35:11;4.05;;;2.17;;
39654;SDS011;25336;59.944;11.010;2023-12-28T07:37:37;5.95;;;2.25;;
39654;SDS011;25336;59.944;11.010;2023-12-28T07:40:03;3.97;;;2.53;;
39654;SDS011;25336;59.944;11.010;2023-12-28T07:42:29;4.25;;;2.47;;
39654;SDS011;25336;59.944;11.010;2023-12-28T07:44:55;3.58;;;2.90;;
39654;SDS011;25336;59.944;11.010;2023-12-28T07:47:21;6.78;;;3.08;;
39654;SDS011;25336;59.944;11.010;2023-12-28T07:49:46;8.25;;;4.00;;
39654;SDS011;25336;59.944;11.010;2023-12-28T07:52:12;7.70;;;4.35;;
39654;SDS011;25336;59.944;11.010;2023-12-28T07:54:38;6.18;;;3.05;;
39654;SDS011;25336;59.944;11.010;2023-12-28T07:57:04;7.55;;;3.58;;
39654;SDS011;25336;59.944;11.010;2023-12-28T07:59:29;4.85;;;2.70;;
39654;SDS011;25336;59.944;11.010;2023-12-28T08:01:55;4.78;;;2.58;;
39654;SDS011;25336;59.944;11.010;2023-12-28T08:04:21;4.40;;;3.17;;
39654;SDS011;25336;59.944;11.010;2023-12-28T08:06:47;8.25;;;3.10;;
39654;SDS011;25336;59.944;11.010;2023-12-28T08:09:13;5.80;;;3.10;;
39654;SDS011;25336;59.944;11.010;2023-12-28T08:11:39;3.50;;;2.38;;
39654;SDS011;25336;59.944;11.010;2023-12-28T08:14:05;6.25;;;2.40;;
39654;SDS011;25336;59.944;11.010;2023-12-28T08:16:31;3.40;;;2.00;;
39654;SDS011;25336;59.944;11.010;2023-12-28T08:18:56;4.07;;;2.60;;
39654;SDS011;25336;59.944;11.010;2023-12-28T08:21:22;5.10;;;2.72;;
39654;SDS011;25336;59.944;11.010;2023-12-28T08:23:48;4.65;;;2.70;;
39654;SDS011;25336;59.944;11.010;2023-12-28T08:26:14;5.05;;;2.85;;
39654;SDS011;25336;59.944;11.010;2023-12-28T08:28:40;3.15;;;2.28;;
39654;SDS011;25336;59.944;11.010;2023-12-28T08:31:05;4.07;;;2.00;;
39654;SDS011;25336;59.944;11.010;2023-12-28T08:33:33;4.85;;;2.58;;
39654;SDS011;25336;59.944;11.010;2023-12-28T08:36:02;2.53;;;1.90;;
39654;SDS011;25336;59.944;11.010;2023-12-28T08:38:29;4.38;;;2.53;;
39654;SDS011;25336;59.944;11.010;2023-12-28T08:40:54;8.85;;;3.22;;
39654;SDS011;25336;59.944;11.010;2023-12-28T08:43:20;2.70;;;1.60;;
39654;SDS011;25336;59.944;11.010;2023-12-28T08:45:46;3.38;;;1.90;;
39654;SDS011;25336;59.944;11.010;2023-12-28T08:48:11;2.10;;;1.80;;
39654;SDS011;25336;59.944;11.010;2023-12-28T08:50:37;3.78;;;2.10;;
39654;SDS011;25336;59.944;11.010;2023-12-28T08:53:03;3.63;;;2.25;;
39654;SDS011;25336;59.944;11.010;2023-12-28T08:55:28;3.03;;;2.20;;
39654;SDS011;25336;59.944;11.010;2023-12-28T08:57:54;6.65;;;4.22;;
39654;SDS011;25336;59.944;11.010;2023-12-28T09:00:20;5.07;;;2.65;;
39654;SDS011;25336;59.944;11.010;2023-12-28T09:02:46;3.50;;;2.28;;
39654;SDS011;25336;59.944;11.010;2023-12-28T09:05:12;7.78;;;2.20;;
39654;SDS011;25336;59.944;11.010;2023-12-28T09:07:37;2.33;;;1.92;;
39654;SDS011;25336;59.944;11.010;2023-12-28T09:10:09;3.05;;;1.77;;
39654;SDS011;25336;59.944;11.010;2023-12-28T09:12:35;6.28;;;1.98;;
39654;SDS011;25336;59.944;11.010;2023-12-28T09:15:01;1.92;;;1.70;;
39654;SDS011;25336;59.944;11.010;2023-12-28T09:17:27;4.82;;;1.88;;
39654;SDS011;25336;59.944;11.010;2023-12-28T09:19:52;5.78;;;2.17;;
39654;SDS011;25336;59.944;11.010;2023-12-28T09:22:18;3.75;;;2.55;;
39654;SDS011;25336;59.944;11.010;2023-12-28T09:24:43;11.63;;;6.47;;
39654;SDS011;25336;59.944;11.010;2023-12-28T09:27:09;8.30;;;3.85;;
39654;SDS011;25336;59.944;11.010;2023-12-28T09:29:35;5.82;;;2.45;;
39654;SDS011;25336;59.944;11.010;2023-12-28T09:32:01;4.05;;;2.20;;
39654;SDS011;25336;59.944;11.010;2023-12-28T09:34:26;3.13;;;2.38;;
39654;SDS011;25336;59.944;11.010;2023-12-28T09:36:52;1.65;;;1.55;;
39654;SDS011;25336;59.944;11.010;2023-12-28T09:39:17;5.03;;;2.15;;
39654;SDS011;25336;59.944;11.010;2023-12-28T09:41:46;4.93;;;2.67;;
39654;SDS011;25336;59.944;11.010;2023-12-28T09:44:20;5.45;;;2.60;;
39654;SDS011;25336;59.944;11.010;2023-12-28T09:46:47;4.65;;;3.00;;
39654;SDS011;25336;59.944;11.010;2023-12-28T09:49:14;5.43;;;2.47;;
39654;SDS011;25336;59.944;11.010;2023-12-28T09:51:41;2.58;;;2.22;;
39654;SDS011;25336;59.944;11.010;2023-12-28T09:54:07;7.25;;;4.45;;
39654;SDS011;25336;59.944;11.010;2023-12-28T09:56:33;8.00;;;4.47;;
39654;SDS011;25336;59.944;11.010;2023-12-28T09:59:00;3.92;;;2.45;;
39654;SDS011;25336;59.944;11.010;2023-12-28T10:01:29;6.03;;;2.78;;
39654;SDS011;25336;59.944;11.010;2023-12-28T10:03:55;4.10;;;1.90;;
39654;SDS011;25336;59.944;11.010;2023-12-28T10:06:21;4.57;;;1.67;;
39654;SDS011;25336;59.944;11.010;2023-12-28T10:08:47;3.67;;;1.92;;
39654;SDS011;25336;59.944;11.010;2023-12-28T10:11:18;3.00;;;2.10;;
39654;SDS011;25336;59.944;11.010;2023-12-28T10:13:44;2.45;;;1.90;;
39654;SDS011;25336;59.944;11.010;2023-12-28T10:16:11;4.43;;;2.25;;
39654;SDS011;25336;59.944;11.010;2023-12-28T10:18:40;3.38;;;1.95;;
39654;SDS011;25336;59.944;11.010;2023-12-28T10:21:10;5.40;;;2.13;;
39654;SDS011;25336;59.944;11.010;2023-12-28T10:23:37;4.93;;;2.25;;
39654;SDS011;25336;59.944;11.010;2023-12-28T10:26:04;4.05;;;2.30;;
39654;SDS011;25336;59.944;11.010;2023-12-28T10:28:34;3.25;;;2.58;;
39654;SDS011;25336;59.944;11.010;2023-12-28T10:31:01;6.18;;;2.67;;
39654;SDS011;25336;59.944;11.010;2023-12-28T10:33:27;4.90;;;2.30;;
39654;SDS011;25336;59.944;11.010;2023-12-28T10:35:52;5.63;;;2.70;;
39654;SDS011;25336;59.944;11.010;2023-12-28T10:38:22;4.63;;;2.20;;
39654;SDS011;25336;59.944;11.010;2023-12-28T10:40:50;4.07;;;2.20;;
39654;SDS011;25336;59.944;11.010;2023-12-28T10:43:17;2.75;;;2.10;;
39654;SDS011;25336;59.944;11.010;2023-12-28T10:45:49;2.15;;;1.80;;
39654;SDS011;25336;59.944;11.010;2023-12-28T10:48:16;3.45;;;2.17;;
39654;SDS011;25336;59.944;11.010;2023-12-28T10:50:55;4.07;;;1.90;;
39654;SDS011;25336;59.944;11.010;2023-12-28T10:53:30;1.60;;;1.50;;
39654;SDS011;25336;59.944;11.010;2023-12-28T11:02:04;4.95;;;2.00;;
39654;SDS011;25336;59.944;11.010;2023-12-28T11:07:14;5.10;;;2.50;;
39654;SDS011;25336;59.944;11.010;2023-12-28T11:09:43;1.63;;;1.48;;
39654;SDS011;25336;59.944;11.010;2023-12-28T11:12:10;6.47;;;2.40;;
39654;SDS011;25336;59.944;11.010;2023-12-28T11:14:39;6.40;;;3.22;;
39654;SDS011;25336;59.944;11.010;2023-12-28T11:17:06;3.35;;;2.00;;
39654;SDS011;25336;59.944;11.010;2023-12-28T11:19:31;4.13;;;2.30;;
39654;SDS011;25336;59.944;11.010;2023-12-28T11:21:59;5.97;;;2.60;;
39654;SDS011;25336;59.944;11.010;2023-12-28T11:24:27;4.70;;;2.60;;
39654;SDS011;25336;59.944;11.010;2023-12-28T11:26:54;4.72;;;2.95;;
39654;SDS011;25336;59.944;11.010;2023-12-28T11:29:20;4.60;;;2.28;;
39654;SDS011;25336;59.944;11.010;2023-12-28T11:31:53;5.13;;;2.10;;
39654;SDS011;25336;59.944;11.010;2023-12-28T11:34:24;6.10;;;2.55;;
39654;SDS011;25336;59.944;11.010;2023-12-28T11:37:08;7.95;;;3.88;;
39654;SDS011;25336;59.944;11.010;2023-12-28T11:39:41;6.53;;;2.85;;
39654;SDS011;25336;59.944;11.010;2023-12-28T11:42:09;18.05;;;5.35;;
39654;SDS011;25336;59.944;11.010;2023-12-28T11:47:14;4.32;;;2.13;;
39654;SDS011;25336;59.944;11.010;2023-12-28T11:49:50;3.47;;;2.10;;
39654;SDS011;25336;59.944;11.010;2023-12-28T11:52:26;5.95;;;1.83;;
39654;SDS011;25336;59.944;11.010;2023-12-28T11:54:54;4.07;;;2.25;;
39654;SDS011;25336;59.944;11.010;2023-12-28T11:57:20;6.32;;;3.00;;
39654;SDS011;25336;59.944;11.010;2023-12-28T11:59:48;3.22;;;2.13;;
39654;SDS011;25336;59.944;11.010;2023-12-28T12:04:43;3.10;;;2.33;;
39654;SDS011;25336;59.944;11.010;2023-12-28T12:07:09;3.85;;;2.67;;
39654;SDS011;25336;59.944;11.010;2023-12-28T12:09:35;6.32;;;2.80;;
39654;SDS011;25336;59.944;11.010;2023-12-28T12:12:01;4.80;;;2.55;;
39654;SDS011;25336;59.944;11.010;2023-12-28T12:14:28;5.70;;;3.00;;
39654;SDS011;25336;59.944;11.010;2023-12-28T12:16:56;7.20;;;3.30;;
39654;SDS011;25336;59.944;11.010;2023-12-28T12:19:24;7.07;;;3.80;;
39654;SDS011;25336;59.944;11.010;2023-12-28T12:21:53;6.57;;;3.63;;
39654;SDS011;25336;59.944;11.010;2023-12-28T12:24:23;6.10;;;3.20;;
39654;SDS011;25336;59.944;11.010;2023-12-28T12:26:52;5.25;;;2.70;;
39654;SDS011;25336;59.944;11.010;2023-12-28T12:29:18;4.25;;;2.05;;
39654;SDS011;25336;59.944;11.010;2023-12-28T12:31:45;3.80;;;2.20;;
39654;SDS011;25336;59.944;11.010;2023-12-28T12:34:15;4.38;;;1.92;;
39654;SDS011;25336;59.944;11.010;2023-12-28T12:36:42;3.33;;;1.92;;
39654;SDS011;25336;59.944;11.010;2023-12-28T12:39:11;3.40;;;2.72;;
39654;SDS011;25336;59.944;11.010;2023-12-28T12:41:36;4.28;;;2.70;;
39654;SDS011;25336;59.944;11.010;2023-12-28T12:44:02;4.22;;;3.25;;
39654;SDS011;25336;59.944;11.010;2023-12-28T12:46:30;3.65;;;2.60;;
39654;SDS011;25336;59.944;11.010;2023-12-28T12:48:56;3.58;;;2.53;;
39654;SDS011;25336;59.944;11.010;2023-12-28T12:51:23;6.93;;;2.88;;
39654;SDS011;25336;59.944;11.010;2023-12-28T12:53:50;7.05;;;2.95;;
39654;SDS011;25336;59.944;11.010;2023-12-28T12:56:20;7.43;;;3.10;;
39654;SDS011;25336;59.944;11.010;2023-12-28T12:58:46;4.18;;;2.80;;
39654;SDS011;25336;59.944;11.010;2023-12-28T13:01:13;4.10;;;2.13;;
39654;SDS011;25336;59.944;11.010;2023-12-28T13:03:39;3.58;;;1.90;;
39654;SDS011;25336;59.944;11.010;2023-12-28T13:06:05;4.97;;;2.17;;
39654;SDS011;25336;59.944;11.010;2023-12-28T13:08:31;3.72;;;2.00;;
39654;SDS011;25336;59.944;11.010;2023-12-28T13:10:57;3.08;;;1.50;;
39654;SDS011;25336;59.944;11.010;2023-12-28T13:13:22;4.68;;;2.50;;
39654;SDS011;25336;59.944;11.010;2023-12-28T13:15:48;3.85;;;1.67;;
39654;SDS011;25336;59.944;11.010;2023-12-28T13:18:14;2.20;;;1.40;;
39654;SDS011;25336;59.944;11.010;2023-12-28T13:20:39;3.13;;;2.05;;
39654;SDS011;25336;59.944;11.010;2023-12-28T13:23:05;4.35;;;2.88;;
39654;SDS011;25336;59.944;11.010;2023-12-28T13:25:31;5.93;;;2.47;;
39654;SDS011;25336;59.944;11.010;2023-12-28T13:27:56;5.30;;;3.00;;
39654;SDS011;25336;59.944;11.010;2023-12-28T13:30:22;5.57;;;3.42;;
39654;SDS011;25336;59.944;11.010;2023-12-28T13:32:51;8.52;;;3.72;;
39654;SDS011;25336;59.944;11.010;2023-12-28T13:35:17;7.07;;;3.17;;
39654;SDS011;25336;59.944;11.010;2023-12-28T13:37:43;6.70;;;2.80;;
39654;SDS011;25336;59.944;11.010;2023-12-28T13:40:09;4.55;;;2.55;;
39654;SDS011;25336;59.944;11.010;2023-12-28T13:42:35;5.35;;;3.05;;
39654;SDS011;25336;59.944;11.010;2023-12-28T13:45:00;4.15;;;2.42;;
39654;SDS011;25336;59.944;11.010;2023-12-28T13:47:27;4.95;;;1.92;;
39654;SDS011;25336;59.944;11.010;2023-12-28T13:49:53;4.40;;;2.70;;
39654;SDS011;25336;59.944;11.010;2023-12-28T13:52:19;3.33;;;2.30;;
39654;SDS011;25336;59.944;11.010;2023-12-28T13:54:45;4.93;;;2.50;;
39654;SDS011;25336;59.944;11.010;2023-12-28T13:57:11;6.43;;;2.97;;
39654;SDS011;25336;59.944;11.010;2023-12-28T13:59:36;4.10;;;2.92;;
39654;SDS011;25336;59.944;11.010;2023-12-28T14:02:03;3.28;;;2.53;;
39654;SDS011;25336;59.944;11.010;2023-12-28T14:04:29;10.02;;;7.55;;
39654;SDS011;25336;59.944;11.010;2023-12-28T14:06:54;7.60;;;4.40;;
39654;SDS011;25336;59.944;11.010;2023-12-28T14:09:20;7.07;;;3.65;;
39654;SDS011;25336;59.944;11.010;2023-12-28T14:11:47;5.18;;;4.30;;
39654;SDS011;25336;59.944;11.010;2023-12-28T14:14:14;5.47;;;3.20;;
39654;SDS011;25336;59.944;11.010;2023-12-28T14:16:40;11.02;;;5.53;;
39654;SDS011;25336;59.944;11.010;2023-12-28T14:19:06;17.05;;;9.05;;
39654;SDS011;25336;59.944;11.010;2023-12-28T14:21:35;46.30;;;17.23;;
39654;SDS011;25336;59.944;11.010;2023-12-28T14:24:02;52.00;;;20.55;;
39654;SDS011;25336;59.944;11.010;2023-12-28T14:26:28;58.35;;;19.85;;
39654;SDS011;25336;59.944;11.010;2023-12-28T14:28:57;54.05;;;21.45;;
39654;SDS011;25336;59.944;11.010;2023-12-28T14:31:24;121.68;;;45.47;;
39654;SDS011;25336;59.944;11.010;2023-12-28T14:33:51;163.55;;;66.65;;
39654;SDS011;25336;59.944;11.010;2023-12-28T14:36:30;130.10;;;53.20;;
39654;SDS011;25336;59.944;11.010;2023-12-28T14:39:02;206.02;;;82.47;;
39654;SDS011;25336;59.944;11.010;2023-12-28T14:41:35;95.28;;;36.58;;
39654;SDS011;25336;59.944;11.010;2023-12-28T14:44:02;84.57;;;36.15;;
39654;SDS011;25336;59.944;11.010;2023-12-28T14:46:28;46.70;;;18.65;;
39654;SDS011;25336;59.944;11.010;2023-12-28T14:48:54;30.45;;;14.05;;